Bude — V7XL2 — position and weather

sailwx.info

Track history (hours):
 
Tides and Currents Weather Stations Pressure Air Temp Water Temp Dewpoint Dewpoint Depression Visibility Wind Speed Wind Dir Waves Ship Positions

Bude

Last reported at 2016-May-27 21:33 UTC. Time now 2016-May-27 22:03 UTC.
Position N 48°56' W 005°38'.

Length 119 m; draft 5.9 m.

Type: Cargo ship. MMSI: 538004506.

Date/timePositionNaut miles runAvg speedWind from/ knotsBaromVisibWave heightAir tempDewpointWater temp
2016-May-27 21:33N 48°56' W 005°38'9 9.1
2016-May-27 20:33N 49°01' W 005°26'9 8.6
2016-May-27 19:32N 49°05' W 005°15'102 9.3
2016-May-27 08:33N 49°56' W 002°59'101 9.9
2016-May-26 22:26N 50°26' W 000°29'7 8.1
2016-May-26 21:33N 50°28' W 000°18'9 9.4
2016-May-26 20:33N 50°31' W 000°04'1010.4
2016-May-26 19:33N 50°34' E 000°12'49 9.7
2016-May-26 14:29N 50°60' E 001°19'8 8.2
2016-May-26 13:33N 51°04' E 001°28'10 9.8
2016-May-26 12:33N 51°10' E 001°40'1111.2
2016-May-26 11:33N 51°19' E 001°52'9 9.2
2016-May-26 10:33N 51°23' E 002°05'1010.1
2016-May-26 09:32N 51°21' E 002°21'1210.9
2016-May-26 08:24N 51°22' E 002°41'8 9.4
2016-May-26 07:31N 51°23' E 002°54'1310.0
2016-May-26 06:12N 51°25' E 003°15'610.0
2016-May-26 05:33N 51°25' E 003°25'10 9.7
2016-May-26 04:33N 51°26' E 003°41'8 8.0
2016-May-26 03:33N 51°20' E 003°49'1 0.7
2016-May-26 02:34N 51°20' E 003°49'1 0.9
2016-May-26 01:33N 51°19' E 003°50'1 1.2
2016-May-26 00:34N 51°18' E 003°50'4 4.2
2016-May-25 23:34N 51°14' E 003°48'5 4.7
2016-May-25 22:31N 51°09' E 003°48'0 0.0
2016-May-25 21:31N 51°09' E 003°48'0 0.0
2016-May-25 20:31N 51°09' E 003°48'0 0.0
2016-May-25 19:31N 51°09' E 003°48'0 0.0
2016-May-25 18:31N 51°09' E 003°48'0 0.0
2016-May-25 17:31N 51°09' E 003°48'0 0.0
2016-May-25 16:31N 51°09' E 003°48'0 0.0
2016-May-25 15:32N 51°09' E 003°48'0 0.0
2016-May-25 14:32N 51°09' E 003°48'0 0.0
2016-May-25 13:31N 51°09' E 003°48'0 0.0
2016-May-25 12:28N 51°09' E 003°48'0 0.0
2016-May-25 11:28N 51°09' E 003°48'0 0.5
2016-May-25 10:33N 51°08' E 003°47'0 0.0
2016-May-25 09:33N 51°08' E 003°47'0 0.0
2016-May-25 08:27N 51°08' E 003°47'0 0.0
2016-May-25 07:33N 51°08' E 003°47'0 0.0
2016-May-25 06:33N 51°08' E 003°47'0 0.0
2016-May-25 05:33N 51°08' E 003°47'0 0.0
2016-May-25 04:30N 51°08' E 003°47'0 0.0
2016-May-25 03:33N 51°08' E 003°47'0 0.0
2016-May-25 02:33N 51°08' E 003°47'0 0.0
2016-May-25 01:33N 51°08' E 003°47'0 0.0
2016-May-25 00:33N 51°08' E 003°47'0 0.0
2016-May-24 23:33N 51°08' E 003°47'0 0.0
2016-May-24 22:33N 51°08' E 003°47'0 0.0
2016-May-24 21:33N 51°08' E 003°47'0 0.0
2016-May-24 20:33N 51°08' E 003°47'0 0.0
2016-May-24 19:33N 51°08' E 003°47'0 0.0
2016-May-24 18:33N 51°08' E 003°47'0 0.0
2016-May-24 17:33N 51°08' E 003°47'0 0.0
2016-May-24 16:33N 51°08' E 003°47'0 0.0
2016-May-24 15:33N 51°08' E 003°47'0 0.0
2016-May-24 14:33N 51°08' E 003°47'0 0.0
2016-May-24 13:31N 51°08' E 003°47'0 0.0
2016-May-24 12:33N 51°08' E 003°47'0 0.0
2016-May-24 11:33N 51°08' E 003°47'0 0.0
2016-May-24 10:33N 51°08' E 003°47'0 0.0
2016-May-24 09:33N 51°08' E 003°47'0 0.0
2016-May-24 08:33N 51°08' E 003°47'0 0.0
2016-May-24 07:33N 51°08' E 003°47'0 0.0
2016-May-24 06:32N 51°08' E 003°47'0 0.0
2016-May-24 05:33N 51°08' E 003°47'0 0.0
2016-May-24 04:33N 51°08' E 003°47'0 0.0
2016-May-24 03:32N 51°08' E 003°47'0 0.0
2016-May-24 02:32N 51°08' E 003°47'0 0.0
2016-May-24 01:32N 51°08' E 003°47'0 0.0
2016-May-24 00:32N 51°08' E 003°47'0 0.0
2016-May-23 23:32N 51°08' E 003°47'0 0.0
2016-May-23 22:32N 51°08' E 003°47'0 0.0
2016-May-23 21:32N 51°08' E 003°47'0 0.0
2016-May-23 20:32N 51°08' E 003°47'0 0.0
2016-May-23 19:29N 51°08' E 003°47'0 0.0
2016-May-23 18:32N 51°08' E 003°47'0 0.0
2016-May-23 17:32N 51°08' E 003°47'0 0.0
2016-May-23 16:29N 51°08' E 003°47'0 0.0
2016-May-23 15:32N 51°08' E 003°47'0 0.0
2016-May-23 14:26N 51°08' E 003°47'0 0.0
2016-May-23 13:32N 51°08' E 003°47'0 0.0
2016-May-23 12:32N 51°08' E 003°47'0 0.0
2016-May-23 11:32N 51°08' E 003°47'0 0.0
2016-May-23 10:32N 51°08' E 003°47'0 0.0
2016-May-23 09:32N 51°08' E 003°47'0 0.0
2016-May-23 08:29N 51°08' E 003°47'0 0.0
2016-May-23 07:32N 51°08' E 003°47'0 0.0
2016-May-23 06:32N 51°08' E 003°47'0 0.0
2016-May-23 05:32N 51°08' E 003°47'0 0.0
2016-May-23 04:29N 51°08' E 003°47'0 0.0
2016-May-23 03:32N 51°08' E 003°47'0 0.0
2016-May-23 02:32N 51°08' E 003°47'0 0.0
2016-May-23 01:32N 51°08' E 003°47'0 0.0
2016-May-23 00:26N 51°08' E 003°47'0 0.0
2016-May-22 23:32N 51°08' E 003°47'0 0.0
2016-May-22 22:32N 51°08' E 003°47'0 0.0
2016-May-22 21:32N 51°08' E 003°47'0 0.0
2016-May-22 20:32N 51°08' E 003°47'0 0.0
2016-May-22 19:32N 51°08' E 003°47'0 0.0
2016-May-22 18:32N 51°08' E 003°47'0 0.0
2016-May-22 17:31N 51°08' E 003°47'0 0.0
2016-May-22 16:32N 51°08' E 003°47'0 0.0
2016-May-22 15:31N 51°08' E 003°47'0 0.0
2016-May-22 14:31N 51°08' E 003°47'0 0.0
2016-May-22 13:31N 51°08' E 003°47'0 0.0
2016-May-22 12:31N 51°08' E 003°47'0 0.0
2016-May-22 11:28N 51°08' E 003°47'0 0.0
2016-May-22 10:31N 51°08' E 003°47'0 0.0
2016-May-22 09:31N 51°08' E 003°47'0 0.0
2016-May-22 08:31N 51°08' E 003°47'0 0.0
2016-May-22 07:31N 51°08' E 003°47'0 0.0
2016-May-22 06:28N 51°08' E 003°47'0 0.0
2016-May-22 05:31N 51°08' E 003°47'0 0.0
2016-May-22 04:31N 51°08' E 003°47'0 0.0
2016-May-22 03:31N 51°08' E 003°47'0 0.0
2016-May-22 02:28N 51°08' E 003°47'0 0.0
2016-May-22 01:31N 51°08' E 003°47'0 0.0
2016-May-22 00:31N 51°08' E 003°47'0 0.0
2016-May-21 23:31N 51°08' E 003°47'0 0.0
2016-May-21 22:31N 51°08' E 003°47'0 0.0
2016-May-21 21:31N 51°08' E 003°47'0 0.0
2016-May-21 20:31N 51°08' E 003°47'0 0.0
2016-May-21 19:31N 51°08' E 003°47'0 0.0
2016-May-21 18:31N 51°08' E 003°47'0 0.0
2016-May-21 17:31N 51°08' E 003°47'0 0.0
2016-May-21 16:31N 51°08' E 003°47'0 0.0
2016-May-21 15:33N 51°08' E 003°47'2 2.2
2016-May-21 14:33N 51°10' E 003°48'6 6.2
2016-May-21 13:34N 51°16' E 003°50'4 3.5
2016-May-21 12:33N 51°20' E 003°49'4 4.4
2016-May-21 11:33N 51°23' E 003°44'1010.2
2016-May-21 10:33N 51°25' E 003°28'1110.9
2016-May-21 09:33N 51°23' E 003°11'9 9.4
2016-May-21 08:33N 51°21' E 002°55'9 8.5
2016-May-21 07:28N 51°22' E 002°41'7 6.9
2016-May-21 06:26N 51°22' E 002°29'6 7.3
2016-May-21 05:33N 51°19' E 002°20'17 8.3
2016-May-21 03:31N 51°10' E 001°57'9 9.4
2016-May-21 02:33N 51°05' E 001°45'1111.2
2016-May-21 01:33N 50°56' E 001°33'6410.6
2016-May-20 19:31N 50°19' E 000°12'1411.2
2016-May-20 18:15N 50°12' W 000°07'710.5
2016-May-20 17:33N 50°06' W 000°15'10 9.8
2016-May-20 16:32N 49°59' W 000°26'9 9.4
2016-May-20 15:33N 49°52' W 000°36'9 9.1
2016-May-20 14:33N 49°46' W 000°45'  
Track history (hours):
 
Tides and Currents Weather Stations Pressure Air Temp Water Temp Dewpoint Dewpoint Depression Visibility Wind Speed Wind Dir Waves Ship Positions

Bude

Last reported at 2016-May-27 21:33 UTC. Time now 2016-May-27 22:03 UTC.
Position N 48°56' W 005°38'.

Length 119 m; draft 5.9 m.

Type: Cargo ship. MMSI: 538004506.

Date/timePositionNaut miles runAvg speedWind from/ knotsBaromVisibWave heightAir tempDewpointWater temp
2016-May-27 21:33N 48°56' W 005°38'9 9.1
2016-May-27 20:33N 49°01' W 005°26'9 8.6
2016-May-27 19:32N 49°05' W 005°15'102 9.3
2016-May-27 08:33N 49°56' W 002°59'101 9.9
2016-May-26 22:26N 50°26' W 000°29'7 8.1
2016-May-26 21:33N 50°28' W 000°18'9 9.4
2016-May-26 20:33N 50°31' W 000°04'1010.4
2016-May-26 19:33N 50°34' E 000°12'49 9.7
2016-May-26 14:29N 50°60' E 001°19'8 8.2
2016-May-26 13:33N 51°04' E 001°28'10 9.8
2016-May-26 12:33N 51°10' E 001°40'1111.2
2016-May-26 11:33N 51°19' E 001°52'9 9.2
2016-May-26 10:33N 51°23' E 002°05'1010.1
2016-May-26 09:32N 51°21' E 002°21'1210.9
2016-May-26 08:24N 51°22' E 002°41'8 9.4
2016-May-26 07:31N 51°23' E 002°54'1310.0
2016-May-26 06:12N 51°25' E 003°15'610.0
2016-May-26 05:33N 51°25' E 003°25'10 9.7
2016-May-26 04:33N 51°26' E 003°41'8 8.0
2016-May-26 03:33N 51°20' E 003°49'1 0.7
2016-May-26 02:34N 51°20' E 003°49'1 0.9
2016-May-26 01:33N 51°19' E 003°50'1 1.2
2016-May-26 00:34N 51°18' E 003°50'4 4.2
2016-May-25 23:34N 51°14' E 003°48'5 4.7
2016-May-25 22:31N 51°09' E 003°48'0 0.0
2016-May-25 21:31N 51°09' E 003°48'0 0.0
2016-May-25 20:31N 51°09' E 003°48'0 0.0
2016-May-25 19:31N 51°09' E 003°48'0 0.0
2016-May-25 18:31N 51°09' E 003°48'0 0.0
2016-May-25 17:31N 51°09' E 003°48'0 0.0
2016-May-25 16:31N 51°09' E 003°48'0 0.0
2016-May-25 15:32N 51°09' E 003°48'0 0.0
2016-May-25 14:32N 51°09' E 003°48'0 0.0
2016-May-25 13:31N 51°09' E 003°48'0 0.0
2016-May-25 12:28N 51°09' E 003°48'0 0.0
2016-May-25 11:28N 51°09' E 003°48'0 0.5
2016-May-25 10:33N 51°08' E 003°47'0 0.0
2016-May-25 09:33N 51°08' E 003°47'0 0.0
2016-May-25 08:27N 51°08' E 003°47'0 0.0
2016-May-25 07:33N 51°08' E 003°47'0 0.0
2016-May-25 06:33N 51°08' E 003°47'0 0.0
2016-May-25 05:33N 51°08' E 003°47'0 0.0
2016-May-25 04:30N 51°08' E 003°47'0 0.0
2016-May-25 03:33N 51°08' E 003°47'0 0.0
2016-May-25 02:33N 51°08' E 003°47'0 0.0
2016-May-25 01:33N 51°08' E 003°47'0 0.0
2016-May-25 00:33N 51°08' E 003°47'0 0.0
2016-May-24 23:33N 51°08' E 003°47'0 0.0
2016-May-24 22:33N 51°08' E 003°47'0 0.0
2016-May-24 21:33N 51°08' E 003°47'0 0.0
2016-May-24 20:33N 51°08' E 003°47'0 0.0
2016-May-24 19:33N 51°08' E 003°47'0 0.0
2016-May-24 18:33N 51°08' E 003°47'0 0.0
2016-May-24 17:33N 51°08' E 003°47'0 0.0
2016-May-24 16:33N 51°08' E 003°47'0 0.0
2016-May-24 15:33N 51°08' E 003°47'0 0.0
2016-May-24 14:33N 51°08' E 003°47'0 0.0
2016-May-24 13:31N 51°08' E 003°47'0 0.0
2016-May-24 12:33N 51°08' E 003°47'0 0.0
2016-May-24 11:33N 51°08' E 003°47'0 0.0
2016-May-24 10:33N 51°08' E 003°47'0 0.0
2016-May-24 09:33N 51°08' E 003°47'0 0.0
2016-May-24 08:33N 51°08' E 003°47'0 0.0
2016-May-24 07:33N 51°08' E 003°47'0 0.0
2016-May-24 06:32N 51°08' E 003°47'0 0.0
2016-May-24 05:33N 51°08' E 003°47'0 0.0
2016-May-24 04:33N 51°08' E 003°47'0 0.0
2016-May-24 03:32N 51°08' E 003°47'0 0.0
2016-May-24 02:32N 51°08' E 003°47'0 0.0
2016-May-24 01:32N 51°08' E 003°47'0 0.0
2016-May-24 00:32N 51°08' E 003°47'0 0.0
2016-May-23 23:32N 51°08' E 003°47'0 0.0
2016-May-23 22:32N 51°08' E 003°47'0 0.0
2016-May-23 21:32N 51°08' E 003°47'0 0.0
2016-May-23 20:32N 51°08' E 003°47'0 0.0
2016-May-23 19:29N 51°08' E 003°47'0 0.0
2016-May-23 18:32N 51°08' E 003°47'0 0.0
2016-May-23 17:32N 51°08' E 003°47'0 0.0
2016-May-23 16:29N 51°08' E 003°47'0 0.0
2016-May-23 15:32N 51°08' E 003°47'0 0.0
2016-May-23 14:26N 51°08' E 003°47'0 0.0
2016-May-23 13:32N 51°08' E 003°47'0 0.0
2016-May-23 12:32N 51°08' E 003°47'0 0.0
2016-May-23 11:32N 51°08' E 003°47'0 0.0
2016-May-23 10:32N 51°08' E 003°47'0 0.0
2016-May-23 09:32N 51°08' E 003°47'0 0.0
2016-May-23 08:29N 51°08' E 003°47'0 0.0
2016-May-23 07:32N 51°08' E 003°47'0 0.0
2016-May-23 06:32N 51°08' E 003°47'0 0.0
2016-May-23 05:32N 51°08' E 003°47'0 0.0
2016-May-23 04:29N 51°08' E 003°47'0 0.0
2016-May-23 03:32N 51°08' E 003°47'0 0.0
2016-May-23 02:32N 51°08' E 003°47'0 0.0
2016-May-23 01:32N 51°08' E 003°47'0 0.0
2016-May-23 00:26N 51°08' E 003°47'0 0.0
2016-May-22 23:32N 51°08' E 003°47'0 0.0
2016-May-22 22:32N 51°08' E 003°47'0 0.0
2016-May-22 21:32N 51°08' E 003°47'0 0.0
2016-May-22 20:32N 51°08' E 003°47'0 0.0
2016-May-22 19:32N 51°08' E 003°47'0 0.0
2016-May-22 18:32N 51°08' E 003°47'0 0.0
2016-May-22 17:31N 51°08' E 003°47'0 0.0
2016-May-22 16:32N 51°08' E 003°47'0 0.0
2016-May-22 15:31N 51°08' E 003°47'0 0.0
2016-May-22 14:31N 51°08' E 003°47'0 0.0
2016-May-22 13:31N 51°08' E 003°47'0 0.0
2016-May-22 12:31N 51°08' E 003°47'0 0.0
2016-May-22 11:28N 51°08' E 003°47'0 0.0
2016-May-22 10:31N 51°08' E 003°47'0 0.0
2016-May-22 09:31N 51°08' E 003°47'0 0.0
2016-May-22 08:31N 51°08' E 003°47'0 0.0
2016-May-22 07:31N 51°08' E 003°47'0 0.0
2016-May-22 06:28N 51°08' E 003°47'0 0.0
2016-May-22 05:31N 51°08' E 003°47'0 0.0
2016-May-22 04:31N 51°08' E 003°47'0 0.0
2016-May-22 03:31N 51°08' E 003°47'0 0.0
2016-May-22 02:28N 51°08' E 003°47'0 0.0
2016-May-22 01:31N 51°08' E 003°47'0 0.0
2016-May-22 00:31N 51°08' E 003°47'0 0.0
2016-May-21 23:31N 51°08' E 003°47'0 0.0
2016-May-21 22:31N 51°08' E 003°47'0 0.0
2016-May-21 21:31N 51°08' E 003°47'0 0.0
2016-May-21 20:31N 51°08' E 003°47'0 0.0
2016-May-21 19:31N 51°08' E 003°47'0 0.0
2016-May-21 18:31N 51°08' E 003°47'0 0.0
2016-May-21 17:31N 51°08' E 003°47'0 0.0
2016-May-21 16:31N 51°08' E 003°47'0 0.0
2016-May-21 15:33N 51°08' E 003°47'2 2.2
2016-May-21 14:33N 51°10' E 003°48'6 6.2
2016-May-21 13:34N 51°16' E 003°50'4 3.5
2016-May-21 12:33N 51°20' E 003°49'4 4.4
2016-May-21 11:33N 51°23' E 003°44'1010.2
2016-May-21 10:33N 51°25' E 003°28'1110.9
2016-May-21 09:33N 51°23' E 003°11'9 9.4
2016-May-21 08:33N 51°21' E 002°55'9 8.5
2016-May-21 07:28N 51°22' E 002°41'7 6.9
2016-May-21 06:26N 51°22' E 002°29'6 7.3
2016-May-21 05:33N 51°19' E 002°20'17 8.3
2016-May-21 03:31N 51°10' E 001°57'9 9.4
2016-May-21 02:33N 51°05' E 001°45'1111.2
2016-May-21 01:33N 50°56' E 001°33'6410.6
2016-May-20 19:31N 50°19' E 000°12'1411.2
2016-May-20 18:15N 50°12' W 000°07'710.5
2016-May-20 17:33N 50°06' W 000°15'10 9.8
2016-May-20 16:32N 49°59' W 000°26'9 9.4
2016-May-20 15:33N 49°52' W 000°36'9 9.1
2016-May-20 14:33N 49°46' W 000°45'  

Dump ship's entire track history